ADDS METAR Data INFO
IDs: Format: Raw Decoded Include TAF

Data at: 0902 UTC 20 Oct 2017

KGBD 200856Z AUTO 17018G22KT 10SM CLR 16/09 A2995 RMK AO2 SLP126 T01560094 58017 TSNO
KGBD 200756Z AUTO 17016KT 10SM CLR 16/09 A2997 RMK AO2 SLP134 T01610094 TSNO
KGBD 200656Z AUTO 17012KT 10SM CLR 16/10 A2998 RMK AO2 SLP141 T01560100
KGBD 200556Z AUTO 17015KT 10SM CLR 16/10 A3000 RMK AO2 SLP146 T01610100 10211 20161 402780050 58000
KGBD 200456Z AUTO 17013KT 10SM CLR 16/10 A3001 RMK AO2 SLP150 T01610100
KGBD 200356Z AUTO 16014KT 10SM CLR 17/09 A3001 RMK AO2 SLP152 T01720089
KGBD 200256Z AUTO 17016KT 10SM CLR 18/09 A3000 RMK AO2 SLP151 T01780089 51004
KGBD 200156Z AUTO 16012KT 10SM CLR 18/08 A3000 RMK AO2 SLP153 T01780083
KGBD 200056Z AUTO 15010KT 10SM CLR 18/08 A2999 RMK AO2 SLP155 T01830083
KGBD 192356Z AUTO 15011KT 10SM CLR 21/09 A2998 RMK AO2 SLP149 T02110089 10278 20211 50000
KGBD 192256Z AUTO 16014KT 10SM CLR 23/08 A2999 RMK AO2 SLP149 T02330078
KGBD 192156Z AUTO 17017KT 10SM CLR 26/06 A2999 RMK AO2 SLP147 T02560061
KGBD 192056Z AUTO 16017KT 10SM CLR 27/06 A2998 RMK AO2 SLP143 T02720061 56024
KGBD 191956Z AUTO 17015KT 10SM CLR 27/07 A3000 RMK AO2 SLP147 T02720072
KGBD 191856Z AUTO 17016G20KT 10SM CLR 26/09 A3003 RMK AO2 SLP159 T02560089
KGBD 191756Z AUTO 16014KT 10SM CLR 24/09 A3006 RMK AO2 SLP170 T02390094 10239 20050 58007
KGBD 191656Z AUTO 17010KT 10SM CLR 22/10 A3007 RMK AO2 SLP175 T02220100 TSNO
KGBD 191556Z AUTO 17009KT 10SM CLR 19/11 A3008 RMK AO2 SLP178 T01940106
KGBD 191456Z AUTO 19007KT 10SM CLR 14/10 A3008 RMK AO2 SLP183 T01440100 53008
KGBD 191356Z AUTO 20003KT 10SM CLR 10/09 A3007 RMK AO2 SLP183 T01000089
KGBD 191341Z AUTO 20003KT 10SM CLR 08/07 A3007 RMK AO2
KGBD 191333Z AUTO 21004KT 2 1/2SM BR CLR 07/06 A3006 RMK AO2 VIS 1/2V5
KGBD 191256Z AUTO 19003KT 9SM CLR 06/04 A3006 RMK AO2 SLP178 T00560044
KGBD 191156Z AUTO 18004KT 10SM CLR 07/06 A3006 RMK AO2 SLP174 T00670056 10122 20056 51004
KGBD 191056Z AUTO 00000KT 10SM CLR 06/06 A3005 RMK AO2 SLP173 T00610056
KGBD 190956Z AUTO 00000KT 10SM CLR 08/06 A3004 RMK AO2 SLP167 T00780061
KGBD 190856Z AUTO 25004KT 10SM CLR 09/07 A3004 RMK AO2 SLP164 T00940072 55002
KGBD 190756Z AUTO 29004KT 10SM CLR 10/08 A3004 RMK AO2 SLP162 T01000078
KGBD 190656Z AUTO 18008KT 10SM CLR 10/08 A3004 RMK AO2 SLP165 T01000078
KGBD 190556Z AUTO 18007KT 10SM CLR 11/08 A3005 RMK AO2 SLP168 T01060078 10206 20106 402780044 50001
KGBD 190456Z AUTO 19005KT 10SM CLR 11/08 A3006 RMK AO2 SLP172 T01110083
KGBD 190356Z AUTO 27003KT 10SM CLR 14/08 A3006 RMK AO2 SLP173 T01390083
KGBD 190256Z AUTO 30005KT 10SM CLR 13/08 A3005 RMK AO2 SLP173 T01280083 51018
KGBD 190156Z AUTO 31005KT 10SM CLR 13/08 A3003 RMK AO2 SLP169 T01330083
KGBD 190056Z AUTO 13005KT 10SM CLR 17/09 A3001 RMK AO2 SLP163 T01670089
KGBD 182356Z AUTO 16005KT 10SM CLR 21/09 A2999 RMK AO2 SLP152 T02060094 10278 20200 53013
KGBD 182318Z AUTO 15004KT 4SM HZ CLR 22/10 A2998 RMK AO2
KGBD 182307Z AUTO 00000KT 1 1/2SM HZ CLR 22/10 A2998 RMK AO2 VIS 1/2V5
KGBD 182256Z AUTO 16003KT 10SM CLR 22/10 A2997 RMK AO2 SLP144 T02220100
KGBD 182156Z AUTO 18007KT 10SM CLR 25/09 A2997 RMK AO2 SLP140 T02500094